Adrian, Michigan
Current Conditions -  °F | °C
As of 3:53 PM on Wednesday 17 Dec 2014 (Local Time) from KADG Reporting Station
Overcast Overcast  
Wind Chill: 20°   Ceiling: 2200
Heat Index: 29°   Visibility: 10mi
Dew Point: 21°   Wind: 10mph
Humidity: 72%   Direction: 290°WNW
Pressure: 30.11"   Gusts: 22mph
Location:  41.9°N, 84.04°W
Report Text: KADG 172053Z AUTO 29009G19KT 10SM OVC022 M02/M06 A3011 RMK AO2 SLP208 T10171061 52001
Loading
Personal Weather Stations






























Interactive Weather Map New forecast layout! Learn more

10-Day Weather Forecast

Advertisements
Track Severe Weather on mobile